Laurent Boyer

Scout - Stade Brestois
9 Dez 2027
Donnerstag
Verarbeitung

Persönlichkeit

Anpassungsfähigkeit (15) Ehrgeiz (19) Kontroverse (2) Loyalität (4) Druck (20) Professionalität (15) Fairness (4) Temperament (4)

Profil

Trainerstil Demokratisch
Lizenz Nationale B
Entschlossenheit 12
Menschenführung 11
Motivation 9
Disziplin 13
Arbeitszufriedenheit
100%
Ermüdung
0%
Rolle Scout
Gehalt 41.8K p/W
Vertrag 14.03.2029

Leistung

Verhalten Gut
Trainingseffektivität
38%
Spielerentwicklung
25%
Verletzungsprävention
60%
Taktische Umsetzung
55%

Letzte Ereignisse

Spieler begutachtet jetzt
Nahm an einer Scouting-Besprechung teil jetzt
Empfahl ein Transferziel jetzt
Empfahl ein Transferziel 7T her
Spieler begutachtet 7T her
Spieler begutachtet 7T her
Spieler begutachtet 7T her
Spieler begutachtet 7T her

Aktuell beobachtet

172
Spieler Verein Status Fähigkeit Vertrauen Beobachtet Zuletzt beobachtet Letzte Stimme
Luis Otávio Colorado Rapids Aktiv 113 / 134 40% 5 08.12.2027 -
Olaniyi Saheed Kwara United Aktiv 93 / 94 40% 5 08.12.2027 -
Marvelous Freedom Ikorodu City Aktiv 93 / 82 40% 5 08.12.2027 -
Erawan Garnier Nimes Aktiv 107 / 108 40% 3 07.12.2027 -
Dmitry Pestryakov Dinamo Moscow Aktiv 117 / 119 40% 4 07.12.2027 -
Kevin Fellaini KV Oostende Aktiv 100 / 108 40% 1 07.12.2027 -
Jofre Torrents Ajax Aktiv 130 / 128 40% 6 06.12.2027 -
Lucas Bergvall Tottenham Aktiv 149 / 151 40% 2 06.12.2027 -
Alejandro Almaraz Nueva Chicago Aktiv 107 / 105 40% 2 06.12.2027 -
Alpha Touré FC Metz Aktiv 121 / 138 40% 2 05.12.2027 -
Myles Lewis-Skelly Birmingham Aktiv 155 / 150 40% 9 05.12.2027 -
José Correa Deportivo Tachira Aktiv 93 / 97 40% 1 05.12.2027 -
Mikkel Hope Haugesund Aktiv 99 / 111 40% 5 04.12.2027 -
Jorrel Hato Chelsea Aktiv 154 / 165 40% 4 01.12.2027 -
Agustín Obregón River Plate Aktiv 112 / 128 40% 1 01.12.2027 -
Ronan Kpakio Cardiff City Aktiv 120 / 136 40% 3 30.11.2027 -
Josh Nichols Tranmere Rovers Aktiv 121 / 124 40% 2 30.11.2027 -
Fillip Jenssen Riise Stabaek Aktiv 100 / 100 40% 1 30.11.2027 -
Mauro Carrizo Atlético Tucumán Aktiv 103 / 116 40% 3 29.11.2027 -
Kauã Moraes Cruzeiro Aktiv 129 / 139 40% 2 29.11.2027 -
Caleb Yirenkyi Coventry City Aktiv 143 / 150 40% 6 27.11.2027 -
Ricky Atletico Venezuela Aktiv 97 / 100 40% 2 27.11.2027 -
Ignacio Fernández Boston River Aktiv 90 / 96 40% 3 26.11.2027 -
Nhoa Sangui Chamois Niortais Aktiv 127 / 131 40% 1 26.11.2027 -
Mohamed Moussa Koïta Djoliba Aktiv 102 / 93 40% 4 25.11.2027 -
Tobias Moi Bodo/Glimt Aktiv 109 / 122 40% 2 24.11.2027 -
Guy Noël Zohouri RC Strasbourg Aktiv 122 / 130 40% 2 24.11.2027 -
Archie Gray Derby County Aktiv 151 / 146 40% 2 22.11.2027 -
Honest Ahanor Atalanta Aktiv 133 / 145 40% 1 22.11.2027 -
Mads Bomholt Stabaek Aktiv 111 / 125 40% 3 21.11.2027 -
Olivier Mambwa Young Boys Aktiv 111 / 119 40% 1 21.11.2027 -
Giovanni Leoni Bradford City Aktiv 138 / 147 40% 1 20.11.2027 -
Enzo Koffi Le Havre AC Aktiv 115 / 118 40% 2 19.11.2027 -
Julián Bazán Philadelphia Union Aktiv 114 / 132 40% 1 17.11.2027 -
Felipe Obradovich Ferro Carril Oeste Aktiv 105 / 120 40% 1 17.11.2027 -
Josh King Chelsea Aktiv 142 / 159 40% 3 16.11.2027 -
Ayden Heaven Luton Town Aktiv 146 / 157 40% 2 16.11.2027 -
Chris Rigg Sunderland Aktiv 135 / 142 40% 1 16.11.2027 -
Pedro Soma San Diego Football Club Aktiv 105 / 105 40% 2 13.11.2027 -
Diego Vargas San Marcos de Arica Aktiv 94 / 100 40% 1 13.11.2027 -
Esquerdinha Shrewsbury Town Aktiv 117 / 125 40% 1 10.11.2027 -
Lucas Høgsberg RC Strasbourg Aktiv 142 / 147 40% 9 07.11.2027 -
Nika Kvaratskhelia Tskhinvali Aktiv 95 / 88 40% 5 07.11.2027 -
Jovan Milosavljević Kalmar FF Aktiv 102 / 101 40% 2 04.11.2027 -
Nicolas Sport Recife Aktiv 104 / 120 40% 2 03.11.2027 -
David Valencia Alianza Petrolera Aktiv 127 / 124 40% 1 03.11.2027 -
Louis Leroux FC Nantes Aktiv 130 / 137 40% 3 02.11.2027 -
Colin Guske Orlando City Aktiv 91 / 83 40% 3 02.11.2027 -
Sebastián Ramírez Jaguares Aktiv 108 / 103 40% 1 31.10.2027 -
Trey Nyoni Rotherham United Aktiv 137 / 137 40% 1 31.10.2027 -
Dominik Chong Qui Atlanta United FC Aktiv 90 / 102 40% 1 27.10.2027 -
Tiago Parente Benfica Aktiv 106 / 120 40% 2 26.10.2027 -
Figueiredo Sampaio Correa Aktiv 93 / 96 40% 1 26.10.2027 -
Harrison Armstrong Everton Aktiv 132 / 149 40% 1 22.10.2027 -
Frankie Westfield Philadelphia Union Aktiv 106 / 109 40% 1 20.10.2027 -
Juan Morán Godoy Cruz Aktiv 108 / 111 40% 1 17.10.2027 -
Narcis Ilaş CFR Cluj Aktiv 110 / 121 40% 1 17.10.2027 -
Jens Hjertø-Dahl Hull City Aktiv 128 / 128 40% 1 15.10.2027 -
Esteban de Lima Tacuarembo Aktiv 91 / 100 40% 2 13.10.2027 -
Khalis Merah Toulouse FC Aktiv 130 / 142 40% 4 08.10.2027 -
Jaydee Canvot AJ Auxerre Aktiv 141 / 148 40% 2 07.10.2027 -
Adrian Gill Atlanta United FC Aktiv 95 / 112 40% 1 07.10.2027 -
Theodor Lundbergh Malmo FF Aktiv 93 / 97 40% 1 06.10.2027 -
Tyson Pearce St. Louis CITY SC Aktiv 90 / 103 40% 1 05.10.2027 -
Balthazar Pierret FC Nantes Bericht bereit 129 / 124 83% 1 26.07.2027 -
Ahmad Ngouyamsa US Creteil Aktiv 110 / 108 83% 1 14.06.2027 Befürworten
Stanislav Agkatsev Sunderland Verhandlung 132 / 133 66% 1 01.06.2027 -
Marvin Keller Bayer Leverkusen Verhandlung 136 / 137 67% 1 01.06.2027 -
Thiago Almada AC Milan Verhandlung 145 / 146 69% 1 01.06.2027 -
Marcel Ruiz RC Lens Verhandlung 140 / 141 66% 1 01.06.2027 -
Borja Sainz Fiorentina Verhandlung 144 / 145 66% 1 01.06.2027 -
Gabri Veiga Feyenoord Verhandlung 147 / 149 69% 1 01.06.2027 -
Davide Bartesaghi AC Milan Aktiv 131 / 139 40% 2 30.05.2027 -
Jan Bürger Gillingham Aktiv 109 / 123 40% 3 29.05.2027 -
Keagan Tau Ajax Cape Town Aktiv 88 / 95 40% 1 29.05.2027 -
Ibrahim Maza Bayer Leverkusen Aktiv 142 / 147 40% 4 28.05.2027 -
Joel McGregor Swindon Town Aktiv 97 / 95 40% 5 28.05.2027 -
Émile Fontaine Chamois Niortais Aktiv 119 / 119 40% 1 26.05.2027 -
Riley Owen Trento Aktiv 102 / 101 40% 4 25.05.2027 -
Milan Roganović Racing Genk Aktiv 113 / 121 40% 6 24.05.2027 -
Dylan Lawlor Cardiff City Aktiv 119 / 128 40% 2 24.05.2027 -
Sascha Britschgi Padova Aktiv 121 / 127 40% 1 24.05.2027 -
Adam Bakoune Ospitaletto Aktiv 95 / 107 40% 1 23.05.2027 -
Hlompho Lorch Ajax Cape Town Aktiv 96 / 102 40% 2 22.05.2027 -
Johan Manzambi Newcastle United Aktiv 141 / 142 40% 1 19.05.2027 -
Bernardo Lima Porto Aktiv 94 / 109 40% 1 19.05.2027 -
Zane Albarus Cambridge United Aktiv 97 / 108 40% 3 17.05.2027 -
Ernie Weaver AFC Wimbledon Aktiv 105 / 125 40% 2 17.05.2027 -
Juan Giménez Celta Aktiv 112 / 120 40% 1 17.05.2027 -
Leonardo Mendicino Bari Aktiv 111 / 130 40% 1 16.05.2027 -
Noah Nartey Olympique Lyonnais Aktiv 135 / 146 40% 3 14.05.2027 -
João Simões Sporting CP Aktiv 130 / 145 40% 2 13.05.2027 -
Pape Diong Westerlo Aktiv 112 / 118 40% 4 11.05.2027 -
Finley McAllister Grimsby Town Aktiv 90 / 91 40% 2 11.05.2027 -
Kazunari Kita Real Sociedad Aktiv 96 / 109 40% 1 11.05.2027 -
Christ Inao Oulaï Fiorentina Aktiv 134 / 138 40% 2 09.05.2027 -
Finn Jeltsch VfB Stuttgart Aktiv 133 / 138 40% 3 07.05.2027 -
Matías Gómez Granada Aktiv 109 / 119 40% 2 07.05.2027 -
Daniel Kelly Oxford United Aktiv 108 / 114 40% 2 06.05.2027 -
Yussif Saidu Zaragoza Aktiv 122 / 124 40% 1 06.05.2027 -
Toni Tamarit Alverca Aktiv 113 / 113 40% 1 28.04.2027 -
Christos Mouzakitis Hull City Aktiv 134 / 146 40% 4 26.04.2027 -
João Teixeira Porto Aktiv 106 / 124 40% 2 25.04.2027 -
Vasco Santos Oliveirense Aktiv 87 / 87 40% 1 24.04.2027 -
Cheveyo Tsawa Club Brugge Aktiv 116 / 132 40% 1 23.04.2027 -
Kevin Vazquez Cruz Azul Aktiv 136 / 155 40% 4 21.04.2027 -
Victor Froholdt Porto Aktiv 153 / 149 40% 1 13.04.2027 -
Warren Zaïre-Emery Paris Saint-Germain Aktiv 159 / 169 40% 6 10.04.2027 -
James Dornelly Peterborough United Aktiv 102 / 114 40% 2 08.04.2027 -
Leandro Martins Benfica Aktiv 94 / 92 40% 3 05.04.2027 -
Lucas Mbamba Westerlo Aktiv 86 / 97 40% 1 03.04.2027 -
Ibrahim Coulibaly Clermont Foot Aktiv 110 / 102 40% 1 03.04.2027 -
Daniel Costa Sporting CP Aktiv 88 / 100 40% 1 02.04.2027 -
Jack Hinshelwood Brighton Aktiv 147 / 155 40% 2 31.03.2027 -
David Ozoh Derby County Aktiv 118 / 124 40% 1 31.03.2027 -
Matvey Kislyak CSKA Moscow Aktiv 130 / 123 40% 1 25.03.2027 -
Emirhan Başyiğit Sivasspor Aktiv 114 / 111 40% 1 22.03.2027 -
José Pachuca Puebla Aktiv 107 / 128 40% 1 22.03.2027 -
Joaquin Seys Club Brugge Aktiv 128 / 123 40% 2 20.03.2027 -
Diego Lainez Tigres Aktiv 129 / 132 40% 1 26.12.2026 -
Léandre Kuavita Waasland-Beveren Aktiv 116 / 119 40% 1 26.12.2026 -
Kyriani Sabbe Club Brugge Aktiv 117 / 132 40% 2 23.12.2026 -
Rémi Lemoine Chamois Niortais Aktiv 161 / 160 40% 2 23.12.2026 -
Tristan Degreef Anderlecht Aktiv 129 / 128 40% 2 17.12.2026 -
Ilay Camara Anderlecht Aktiv 130 / 123 40% 2 17.12.2026 -
Robert-Jan Vanwesemael Sint-Truiden Aktiv 118 / 117 40% 1 17.12.2026 -
Carlos Alcaraz Everton Aktiv 146 / 148 40% 1 06.12.2026 -
Matteo Dams Club Brugge Aktiv 126 / 123 40% 2 05.12.2026 -
Jack Rudoni Coventry City Aktiv 134 / 125 40% 1 05.12.2026 -
Myron van Brederode KV Mechelen Aktiv 115 / 113 40% 1 05.12.2026 -
Thibaud Verlinden OH Leuven Aktiv 129 / 131 40% 2 03.12.2026 -
Mario Stroeykens Anderlecht Aktiv 124 / 132 40% 2 03.12.2026 -
Ilyes Najim Waasland-Beveren Aktiv 111 / 123 40% 2 03.12.2026 -
Osame Sahraoui LOSC Lille Aktiv 147 / 132 40% 2 30.11.2026 -
Thomas Claes Zulte Waregem Aktiv 112 / 119 40% 2 30.11.2026 -
Taiga Hata Sint-Truiden Aktiv 126 / 119 40% 1 28.11.2026 -
Daan Heymans Racing Genk Aktiv 127 / 127 40% 1 28.11.2026 -
Chris Lokesa Waasland-Beveren Aktiv 123 / 131 40% 3 27.11.2026 -
Tom Fellows Southampton Aktiv 132 / 133 40% 1 27.11.2026 -
Félix Lemaréchal Club Brugge Aktiv 132 / 126 40% 1 27.11.2026 -
Ansu Fati Monaco Aktiv 134 / 135 40% 2 25.11.2026 -
Sofiane Diop OGC Nice Aktiv 142 / 152 40% 1 24.11.2026 -
Abdelkahar Kadri KAA Gent Aktiv 126 / 114 40% 2 23.11.2026 -
Jeppe Erenbjerg Racing Genk Aktiv 126 / 118 40% 4 22.11.2026 -
Nikolas Sattlberger Racing Genk Aktiv 118 / 135 40% 2 18.11.2026 -
Tshepang Moremi Orlando Pirates Aktiv 117 / 113 40% 1 18.11.2026 -
Mardochée Nzita Charleroi Aktiv 111 / 117 40% 2 16.11.2026 -
Matisse Samoise KAA Gent Aktiv 123 / 129 40% 1 16.11.2026 -
Maghnes Akliouche Paris Saint-Germain Aktiv 139 / 136 40% 1 15.11.2026 -
Isa Sakamoto Westerlo Aktiv 113 / 118 40% 1 15.11.2026 -
Yeremy Pino Crystal Palace Aktiv 144 / 141 40% 1 13.11.2026 -
Doğucan Haspolat Westerlo Aktiv 122 / 126 40% 1 09.11.2026 -
Xavi Simons Tottenham Aktiv 154 / 152 40% 1 08.11.2026 -
Scott Twine Bristol City Aktiv 121 / 120 40% 2 06.11.2026 -
Yaimar Medina Racing Genk Aktiv 119 / 134 40% 1 06.11.2026 -
Adriano Bertaccini Anderlecht Aktiv 129 / 133 40% 2 05.11.2026 -
Amine Adli Bournemouth Aktiv 148 / 140 40% 2 02.11.2026 -
Bill Antonio KV Mechelen Aktiv 118 / 127 40% 1 02.11.2026 -
Louis Morin Tours Aktiv 122 / 119 40% 1 01.11.2026 -
Ilias Sebaoui Sint-Truiden Aktiv 130 / 129 40% 2 30.10.2026 -
Kevin Amaro Racing Genk Aktiv 123 / 132 40% 1 30.10.2026 -
Rico Lewis Manchester City Aktiv 150 / 157 40% 1 30.10.2026 -
Cisse Sandra Westerlo Aktiv 111 / 125 40% 1 27.10.2026 -
Aimé Omgba KAA Gent Aktiv 125 / 124 40% 1 27.10.2026 -
Richard Gonzalez Chamois Niortais Aktiv 124 / 129 40% 1 24.10.2026 -
Tiago Araújo KAA Gent Aktiv 124 / 117 40% 1 22.10.2026 -
Gonzalo Fulham Aktiv 142 / 136 40% 1 22.10.2026 -
Maksim Kireev KV Mechelen Aktiv 122 / 128 40% 2 15.10.2026 -
Henok Teklab OH Leuven Aktiv 114 / 116 40% 1 15.10.2026 -
Mamadou Diakhon Club Brugge Aktiv 114 / 119 40% 1 12.10.2026 -
Matt O'Riley Brighton Aktiv 148 / 155 40% 1 08.10.2026 -
Barış Alper Yılmaz Galatasaray Aktiv 143 / 164 40% 1 08.10.2026 -